sensor_id;sensor_type;location;lat;lon;timestamp;pressure;altitude;pressure_sealevel;temperature;humidity
60355;BME280;46198;51.464;-0.066;2023-03-20T00:02:03;101787.91;;;8.80;100.00
60355;BME280;46198;51.464;-0.066;2023-03-20T00:04:31;101773.41;;;8.73;100.00
60355;BME280;46198;51.464;-0.066;2023-03-20T00:06:59;101780.53;;;8.74;100.00
60355;BME280;46198;51.464;-0.066;2023-03-20T00:09:27;101778.53;;;8.68;100.00
60355;BME280;46198;51.464;-0.066;2023-03-20T00:11:55;101778.53;;;8.68;100.00
60355;BME280;46198;51.464;-0.066;2023-03-20T00:14:25;101780.94;;;8.63;100.00
60355;BME280;46198;51.464;-0.066;2023-03-20T00:16:53;101774.16;;;8.67;100.00
60355;BME280;46198;51.464;-0.066;2023-03-20T00:19:23;101771.81;;;8.64;100.00
60355;BME280;46198;51.464;-0.066;2023-03-20T00:21:52;101771.16;;;8.62;100.00
60355;BME280;46198;51.464;-0.066;2023-03-20T00:24:21;101768.44;;;8.62;100.00
60355;BME280;46198;51.464;-0.066;2023-03-20T00:26:50;101762.38;;;8.60;100.00
60355;BME280;46198;51.464;-0.066;2023-03-20T00:29:21;101767.78;;;8.60;100.00
60355;BME280;46198;51.464;-0.066;2023-03-20T00:31:52;101775.06;;;8.59;100.00
60355;BME280;46198;51.464;-0.066;2023-03-20T00:34:22;101776.19;;;8.65;100.00
60355;BME280;46198;51.464;-0.066;2023-03-20T00:36:52;101782.00;;;8.62;100.00
60355;BME280;46198;51.464;-0.066;2023-03-20T00:39:20;101784.69;;;8.62;100.00
60355;BME280;46198;51.464;-0.066;2023-03-20T00:41:50;101784.78;;;8.54;100.00
60355;BME280;46198;51.464;-0.066;2023-03-20T00:44:22;101786.28;;;8.56;100.00
60355;BME280;46198;51.464;-0.066;2023-03-20T00:46:53;101786.44;;;8.55;100.00
60355;BME280;46198;51.464;-0.066;2023-03-20T00:49:24;101784.22;;;8.58;100.00
60355;BME280;46198;51.464;-0.066;2023-03-20T00:51:53;101784.41;;;8.57;100.00
60355;BME280;46198;51.464;-0.066;2023-03-20T00:54:24;101779.00;;;8.57;100.00
60355;BME280;46198;51.464;-0.066;2023-03-20T00:56:54;101778.31;;;8.55;100.00
60355;BME280;46198;51.464;-0.066;2023-03-20T00:59:27;101776.28;;;8.57;100.00
60355;BME280;46198;51.464;-0.066;2023-03-20T01:01:57;101783.09;;;8.53;100.00
60355;BME280;46198;51.464;-0.066;2023-03-20T01:04:30;101784.41;;;8.57;100.00
60355;BME280;46198;51.464;-0.066;2023-03-20T01:07:02;101786.81;;;8.52;100.00
60355;BME280;46198;51.464;-0.066;2023-03-20T01:09:30;101776.47;;;8.55;100.00
60355;BME280;46198;51.464;-0.066;2023-03-20T01:11:59;101781.03;;;8.55;100.00
60355;BME280;46198;51.464;-0.066;2023-03-20T01:14:27;101773.09;;;8.53;100.00
60355;BME280;46198;51.464;-0.066;2023-03-20T01:16:57;101783.94;;;8.53;100.00
60355;BME280;46198;51.464;-0.066;2023-03-20T01:19:25;101780.19;;;8.54;100.00
60355;BME280;46198;51.464;-0.066;2023-03-20T01:21:53;101776.66;;;8.54;100.00
60355;BME280;46198;51.464;-0.066;2023-03-20T01:24:21;101773.09;;;8.53;100.00
60355;BME280;46198;51.464;-0.066;2023-03-20T01:26:49;101774.03;;;8.46;100.00
60355;BME280;46198;51.464;-0.066;2023-03-20T01:29:21;101775.97;;;8.52;100.00
60355;BME280;46198;51.464;-0.066;2023-03-20T01:31:51;101772.28;;;8.53;100.00
60355;BME280;46198;51.464;-0.066;2023-03-20T01:34:22;101775.16;;;8.51;100.00
60355;BME280;46198;51.464;-0.066;2023-03-20T01:36:53;101771.44;;;8.52;100.00
60355;BME280;46198;51.464;-0.066;2023-03-20T01:39:22;101776.84;;;8.52;100.00
60355;BME280;46198;51.464;-0.066;2023-03-20T01:41:55;101776.34;;;8.49;100.00
60355;BME280;46198;51.464;-0.066;2023-03-20T01:44:29;101763.66;;;8.49;100.00
60355;BME280;46198;51.464;-0.066;2023-03-20T01:46:59;101768.34;;;8.55;100.00
60355;BME280;46198;51.464;-0.066;2023-03-20T01:52:35;101759.75;;;8.52;100.00
60355;BME280;46198;51.464;-0.066;2023-03-20T01:55:04;101761.44;;;8.53;100.00
60355;BME280;46198;51.464;-0.066;2023-03-20T01:57:33;101762.94;;;8.55;100.00
60355;BME280;46198;51.464;-0.066;2023-03-20T02:00:04;101757.03;;;8.52;100.00
60355;BME280;46198;51.464;-0.066;2023-03-20T02:02:41;101743.41;;;8.45;100.00
60355;BME280;46198;51.464;-0.066;2023-03-20T02:05:17;101754.53;;;8.50;100.00
60355;BME280;46198;51.464;-0.066;2023-03-20T02:07:53;101742.22;;;8.48;100.00
60355;BME280;46198;51.464;-0.066;2023-03-20T02:10:23;101739.13;;;8.51;100.00
60355;BME280;46198;51.464;-0.066;2023-03-20T02:13:03;101736.78;;;8.48;100.00
60355;BME280;46198;51.464;-0.066;2023-03-20T02:15:58;101738.97;;;8.52;100.00
60355;BME280;46198;51.464;-0.066;2023-03-20T02:18:50;101733.88;;;8.49;100.00
60355;BME280;46198;51.464;-0.066;2023-03-20T02:24:55;101734.75;;;8.50;100.00
60355;BME280;46198;51.464;-0.066;2023-03-20T02:27:33;101725.47;;;8.44;100.00
60355;BME280;46198;51.464;-0.066;2023-03-20T02:30:17;101706.34;;;8.46;100.00
60355;BME280;46198;51.464;-0.066;2023-03-20T02:39:28;101689.34;;;8.37;100.00
60355;BME280;46198;51.464;-0.066;2023-03-20T02:42:07;101691.19;;;8.36;100.00
60355;BME280;46198;51.464;-0.066;2023-03-20T02:44:43;101683.72;;;8.38;100.00
60355;BME280;46198;51.464;-0.066;2023-03-20T02:47:17;101674.41;;;8.41;100.00
60355;BME280;46198;51.464;-0.066;2023-03-20T02:49:52;101677.34;;;8.39;100.00
60355;BME280;46198;51.464;-0.066;2023-03-20T02:52:31;101674.41;;;8.41;100.00
60355;BME280;46198;51.464;-0.066;2023-03-20T02:55:10;101674.47;;;8.33;100.00
60355;BME280;46198;51.464;-0.066;2023-03-20T02:57:48;101668.22;;;8.32;100.00
60355;BME280;46198;51.464;-0.066;2023-03-20T03:00:25;101673.28;;;8.35;100.00
60355;BME280;46198;51.464;-0.066;2023-03-20T03:03:00;101671.59;;;8.34;100.00
60355;BME280;46198;51.464;-0.066;2023-03-20T03:05:35;101667.84;;;8.35;100.00
60355;BME280;46198;51.464;-0.066;2023-03-20T03:08:07;101663.28;;;8.36;100.00
60355;BME280;46198;51.464;-0.066;2023-03-20T03:10:43;101665.16;;;8.35;100.00
60355;BME280;46198;51.464;-0.066;2023-03-20T03:13:14;101669.56;;;8.36;100.00
60355;BME280;46198;51.464;-0.066;2023-03-20T03:15:47;101659.09;;;8.33;100.00
60355;BME280;46198;51.464;-0.066;2023-03-20T03:18:19;101661.22;;;8.38;100.00
60355;BME280;46198;51.464;-0.066;2023-03-20T03:20:53;101653.94;;;8.38;100.00
60355;BME280;46198;51.464;-0.066;2023-03-20T03:23:26;101656.34;;;8.41;100.00
60355;BME280;46198;51.464;-0.066;2023-03-20T03:25:57;101653.31;;;8.36;100.00
60355;BME280;46198;51.464;-0.066;2023-03-20T03:28:30;101652.59;;;8.42;100.00
60355;BME280;46198;51.464;-0.066;2023-03-20T03:31:04;101660.72;;;8.42;100.00
60355;BME280;46198;51.464;-0.066;2023-03-20T03:33:37;101652.22;;;8.46;100.00
60355;BME280;46198;51.464;-0.066;2023-03-20T03:36:10;101646.97;;;8.44;100.00
60355;BME280;46198;51.464;-0.066;2023-03-20T03:38:44;101645.81;;;8.38;100.00
60355;BME280;46198;51.464;-0.066;2023-03-20T03:41:23;101644.28;;;8.44;100.00
60355;BME280;46198;51.464;-0.066;2023-03-20T03:43:58;101640.09;;;8.41;100.00
60355;BME280;46198;51.464;-0.066;2023-03-20T03:46:36;101640.56;;;8.45;100.00
60355;BME280;46198;51.464;-0.066;2023-03-20T03:49:14;101639.91;;;8.43;100.00
60355;BME280;46198;51.464;-0.066;2023-03-20T03:51:47;101636.28;;;8.51;100.00
60355;BME280;46198;51.464;-0.066;2023-03-20T03:54:18;101645.78;;;8.47;100.00
60355;BME280;46198;51.464;-0.066;2023-03-20T03:57:09;101642.34;;;8.53;100.00
60355;BME280;46198;51.464;-0.066;2023-03-20T03:59:45;101639.44;;;8.54;100.00
60355;BME280;46198;51.464;-0.066;2023-03-20T04:02:15;101643.34;;;8.52;100.00
60355;BME280;46198;51.464;-0.066;2023-03-20T04:04:49;101634.84;;;8.55;100.00
60355;BME280;46198;51.464;-0.066;2023-03-20T04:07:19;101642.63;;;8.58;100.00
60355;BME280;46198;51.464;-0.066;2023-03-20T04:09:47;101640.28;;;8.55;100.00
60355;BME280;46198;51.464;-0.066;2023-03-20T04:12:32;101650.25;;;8.54;100.00
60355;BME280;46198;51.464;-0.066;2023-03-20T04:15:01;101651.09;;;8.55;100.00
60355;BME280;46198;51.464;-0.066;2023-03-20T04:17:31;101646.53;;;8.55;100.00
60355;BME280;46198;51.464;-0.066;2023-03-20T04:20:00;101640.56;;;8.60;100.00
60355;BME280;46198;51.464;-0.066;2023-03-20T04:22:28;101630.94;;;8.57;100.00
60355;BME280;46198;51.464;-0.066;2023-03-20T04:25:04;101632.06;;;8.63;100.00
60355;BME280;46198;51.464;-0.066;2023-03-20T04:27:35;101630.75;;;8.59;100.00
60355;BME280;46198;51.464;-0.066;2023-03-20T04:30:11;101626.56;;;8.56;100.00
60355;BME280;46198;51.464;-0.066;2023-03-20T04:32:58;101626.19;;;8.59;100.00
60355;BME280;46198;51.464;-0.066;2023-03-20T04:35:54;101633.28;;;8.60;100.00
60355;BME280;46198;51.464;-0.066;2023-03-20T04:38:23;101629.56;;;8.61;100.00
60355;BME280;46198;51.464;-0.066;2023-03-20T04:40:53;101620.22;;;8.64;100.00
60355;BME280;46198;51.464;-0.066;2023-03-20T04:43:22;101625.06;;;8.69;100.00
60355;BME280;46198;51.464;-0.066;2023-03-20T04:45:51;101622.25;;;8.62;100.00
60355;BME280;46198;51.464;-0.066;2023-03-20T04:48:20;101615.81;;;8.63;100.00
60355;BME280;46198;51.464;-0.066;2023-03-20T04:50:48;101627.03;;;8.60;100.00
60355;BME280;46198;51.464;-0.066;2023-03-20T04:53:20;101634.97;;;8.61;100.00
60355;BME280;46198;51.464;-0.066;2023-03-20T04:55:51;101625.53;;;8.72;100.00
60355;BME280;46198;51.464;-0.066;2023-03-20T04:58:19;101630.00;;;8.65;100.00
60355;BME280;46198;51.464;-0.066;2023-03-20T05:00:49;101623.66;;;8.73;100.00
60355;BME280;46198;51.464;-0.066;2023-03-20T05:03:17;101617.13;;;8.67;100.00
60355;BME280;46198;51.464;-0.066;2023-03-20T05:05:49;101624.97;;;8.62;100.00
60355;BME280;46198;51.464;-0.066;2023-03-20T05:08:17;101606.69;;;8.64;100.00
60355;BME280;46198;51.464;-0.066;2023-03-20T05:10:46;101607.34;;;8.66;100.00
60355;BME280;46198;51.464;-0.066;2023-03-20T05:13:42;101607.13;;;8.68;100.00
60355;BME280;46198;51.464;-0.066;2023-03-20T05:16:32;101603.59;;;8.67;100.00
60355;BME280;46198;51.464;-0.066;2023-03-20T05:19:26;101605.16;;;8.76;100.00
60355;BME280;46198;51.464;-0.066;2023-03-20T05:22:23;101606.31;;;8.67;100.00
60355;BME280;46198;51.464;-0.066;2023-03-20T05:25:09;101605.25;;;8.68;100.00
60355;BME280;46198;51.464;-0.066;2023-03-20T05:27:56;101605.91;;;8.70;100.00
60355;BME280;46198;51.464;-0.066;2023-03-20T05:30:33;101608.34;;;8.80;100.00
60355;BME280;46198;51.464;-0.066;2023-03-20T05:33:35;101606.19;;;8.75;100.00
60355;BME280;46198;51.464;-0.066;2023-03-20T05:36:22;101613.94;;;8.78;100.00
60355;BME280;46198;51.464;-0.066;2023-03-20T05:38:54;101613.09;;;8.78;100.00
60355;BME280;46198;51.464;-0.066;2023-03-20T05:41:37;101607.88;;;8.76;100.00
60355;BME280;46198;51.464;-0.066;2023-03-20T05:44:08;101607.75;;;8.84;100.00
60355;BME280;46198;51.464;-0.066;2023-03-20T05:46:54;101602.28;;;8.78;100.00
60355;BME280;46198;51.464;-0.066;2023-03-20T05:49:52;101604.03;;;8.85;100.00
60355;BME280;46198;51.464;-0.066;2023-03-20T05:52:28;101602.34;;;8.84;100.00
60355;BME280;46198;51.464;-0.066;2023-03-20T05:55:10;101602.72;;;8.81;100.00
60355;BME280;46198;51.464;-0.066;2023-03-20T05:57:57;101598.41;;;8.87;100.00
60355;BME280;46198;51.464;-0.066;2023-03-20T06:00:38;101606.38;;;8.88;100.00
60355;BME280;46198;51.464;-0.066;2023-03-20T06:03:32;101597.09;;;8.98;100.00
60355;BME280;46198;51.464;-0.066;2023-03-20T06:06:09;101604.59;;;8.96;100.00
60355;BME280;46198;51.464;-0.066;2023-03-20T06:08:37;101608.31;;;8.95;100.00
60355;BME280;46198;51.464;-0.066;2023-03-20T06:11:06;101602.13;;;9.01;100.00
60355;BME280;46198;51.464;-0.066;2023-03-20T06:13:36;101603.16;;;9.00;100.00
60355;BME280;46198;51.464;-0.066;2023-03-20T06:16:06;101602.78;;;9.03;100.00
60355;BME280;46198;51.464;-0.066;2023-03-20T06:18:35;101596.78;;;9.07;100.00
60355;BME280;46198;51.464;-0.066;2023-03-20T06:21:06;101602.66;;;9.11;100.00
60355;BME280;46198;51.464;-0.066;2023-03-20T06:23:36;101600.59;;;9.13;100.00
60355;BME280;46198;51.464;-0.066;2023-03-20T06:26:05;101611.06;;;9.16;100.00
60355;BME280;46198;51.464;-0.066;2023-03-20T06:28:46;101599.44;;;9.22;100.00
60355;BME280;46198;51.464;-0.066;2023-03-20T06:31:14;101604.81;;;9.16;100.00
60355;BME280;46198;51.464;-0.066;2023-03-20T06:33:43;101603.97;;;9.15;100.00
60355;BME280;46198;51.464;-0.066;2023-03-20T06:36:11;101607.69;;;9.14;100.00
60355;BME280;46198;51.464;-0.066;2023-03-20T06:38:41;101614.81;;;9.15;100.00
60355;BME280;46198;51.464;-0.066;2023-03-20T06:41:13;101616.56;;;9.23;100.00
60355;BME280;46198;51.464;-0.066;2023-03-20T06:43:57;101615.69;;;9.22;100.00
60355;BME280;46198;51.464;-0.066;2023-03-20T06:46:33;101612.44;;;9.27;100.00
60355;BME280;46198;51.464;-0.066;2023-03-20T06:49:02;101609.44;;;9.22;100.00
60355;BME280;46198;51.464;-0.066;2023-03-20T06:51:30;101619.00;;;9.18;100.00
60355;BME280;46198;51.464;-0.066;2023-03-20T06:54:00;101619.84;;;9.18;100.00
60355;BME280;46198;51.464;-0.066;2023-03-20T06:56:29;101622.44;;;9.26;100.00
60355;BME280;46198;51.464;-0.066;2023-03-20T06:58:58;101623.25;;;9.27;100.00
60355;BME280;46198;51.464;-0.066;2023-03-20T07:01:26;101615.56;;;9.30;100.00
60355;BME280;46198;51.464;-0.066;2023-03-20T07:03:55;101619.22;;;9.38;100.00
60355;BME280;46198;51.464;-0.066;2023-03-20T07:06:27;101620.25;;;9.37;100.00
60355;BME280;46198;51.464;-0.066;2023-03-20T07:08:55;101622.31;;;9.35;100.00
60355;BME280;46198;51.464;-0.066;2023-03-20T07:11:24;101627.59;;;9.43;100.00
60355;BME280;46198;51.464;-0.066;2023-03-20T07:13:54;101625.03;;;9.35;100.00
60355;BME280;46198;51.464;-0.066;2023-03-20T07:16:37;101628.44;;;9.43;100.00
60355;BME280;46198;51.464;-0.066;2023-03-20T07:19:05;101634.31;;;9.47;100.00
60355;BME280;46198;51.464;-0.066;2023-03-20T07:21:37;101635.22;;;9.54;100.00
60355;BME280;46198;51.464;-0.066;2023-03-20T07:24:05;101640.00;;;9.52;100.00
60355;BME280;46198;51.464;-0.066;2023-03-20T07:26:35;101628.75;;;9.55;100.00
60355;BME280;46198;51.464;-0.066;2023-03-20T07:29:03;101614.22;;;9.63;100.00
60355;BME280;46198;51.464;-0.066;2023-03-20T07:31:32;101624.25;;;9.62;100.00
60355;BME280;46198;51.464;-0.066;2023-03-20T07:34:18;101619.47;;;9.64;100.00
60355;BME280;46198;51.464;-0.066;2023-03-20T07:36:48;101618.66;;;9.64;100.00
60355;BME280;46198;51.464;-0.066;2023-03-20T07:39:19;101618.69;;;9.70;100.00
60355;BME280;46198;51.464;-0.066;2023-03-20T07:42:09;101614.31;;;9.69;100.00
60355;BME280;46198;51.464;-0.066;2023-03-20T07:44:49;101613.19;;;9.85;100.00
60355;BME280;46198;51.464;-0.066;2023-03-20T07:47:17;101604.66;;;9.88;100.00
60355;BME280;46198;51.464;-0.066;2023-03-20T07:49:45;101607.38;;;9.88;100.00
60355;BME280;46198;51.464;-0.066;2023-03-20T07:52:13;101604.44;;;9.90;100.00
60355;BME280;46198;51.464;-0.066;2023-03-20T07:54:43;101609.72;;;9.98;100.00
60355;BME280;46198;51.464;-0.066;2023-03-20T07:57:12;101607.66;;;10.00;100.00
60355;BME280;46198;51.464;-0.066;2023-03-20T07:59:40;101612.69;;;10.03;100.00
60355;BME280;46198;51.464;-0.066;2023-03-20T08:02:13;101603.50;;;10.04;100.00
60355;BME280;46198;51.464;-0.066;2023-03-20T08:04:41;101601.50;;;10.13;100.00
60355;BME280;46198;51.464;-0.066;2023-03-20T08:07:10;101599.38;;;10.08;100.00
60355;BME280;46198;51.464;-0.066;2023-03-20T08:09:38;101609.84;;;10.11;100.00
60355;BME280;46198;51.464;-0.066;2023-03-20T08:12:07;101611.44;;;10.27;100.00
60355;BME280;46198;51.464;-0.066;2023-03-20T08:14:36;101618.06;;;10.25;100.00
60355;BME280;46198;51.464;-0.066;2023-03-20T08:17:05;101618.66;;;10.20;100.00
60355;BME280;46198;51.464;-0.066;2023-03-20T08:19:42;101618.22;;;10.16;100.00
60355;BME280;46198;51.464;-0.066;2023-03-20T08:22:11;101616.09;;;10.12;100.00
60355;BME280;46198;51.464;-0.066;2023-03-20T08:24:39;101616.59;;;10.22;100.00
60355;BME280;46198;51.464;-0.066;2023-03-20T08:27:07;101611.03;;;10.30;100.00
60355;BME280;46198;51.464;-0.066;2023-03-20T08:29:37;101606.25;;;10.32;100.00
60355;BME280;46198;51.464;-0.066;2023-03-20T08:32:05;101600.44;;;10.35;100.00
60355;BME280;46198;51.464;-0.066;2023-03-20T08:34:34;101603.94;;;10.29;100.00
60355;BME280;46198;51.464;-0.066;2023-03-20T08:37:02;101605.03;;;10.35;100.00
60355;BME280;46198;51.464;-0.066;2023-03-20T08:39:31;101610.88;;;10.38;100.00
60355;BME280;46198;51.464;-0.066;2023-03-20T08:42:00;101611.28;;;10.35;100.00
60355;BME280;46198;51.464;-0.066;2023-03-20T08:44:28;101607.34;;;10.38;100.00
60355;BME280;46198;51.464;-0.066;2023-03-20T08:46:57;101603.81;;;10.44;100.00
60355;BME280;46198;51.464;-0.066;2023-03-20T08:49:26;101606.28;;;10.39;100.00
60355;BME280;46198;51.464;-0.066;2023-03-20T08:51:54;101607.13;;;10.39;100.00
60355;BME280;46198;51.464;-0.066;2023-03-20T08:54:22;101601.06;;;10.37;100.00
60355;BME280;46198;51.464;-0.066;2023-03-20T08:56:51;101603.38;;;10.40;100.00
60355;BME280;46198;51.464;-0.066;2023-03-20T08:59:19;101601.78;;;10.53;100.00
60355;BME280;46198;51.464;-0.066;2023-03-20T09:01:47;101610.97;;;10.58;100.00
60355;BME280;46198;51.464;-0.066;2023-03-20T09:04:18;101613.91;;;10.57;100.00
60355;BME280;46198;51.464;-0.066;2023-03-20T09:06:46;101606.19;;;10.54;100.00
60355;BME280;46198;51.464;-0.066;2023-03-20T09:09:14;101621.84;;;10.58;100.00
60355;BME280;46198;51.464;-0.066;2023-03-20T09:11:45;101605.19;;;10.61;100.00
60355;BME280;46198;51.464;-0.066;2023-03-20T09:14:13;101610.59;;;10.61;100.00
60355;BME280;46198;51.464;-0.066;2023-03-20T09:16:41;101603.78;;;10.72;100.00
60355;BME280;46198;51.464;-0.066;2023-03-20T09:19:09;101607.78;;;10.83;100.00
60355;BME280;46198;51.464;-0.066;2023-03-20T09:21:39;101608.81;;;10.82;100.00
60355;BME280;46198;51.464;-0.066;2023-03-20T09:24:07;101605.50;;;10.86;100.00
60355;BME280;46198;51.464;-0.066;2023-03-20T09:26:35;101606.50;;;10.85;100.00
60355;BME280;46198;51.464;-0.066;2023-03-20T09:29:04;101612.22;;;10.97;100.00
60355;BME280;46198;51.464;-0.066;2023-03-20T09:31:32;101609.94;;;11.01;100.00
60355;BME280;46198;51.464;-0.066;2023-03-20T09:34:00;101606.16;;;10.95;100.00
60355;BME280;46198;51.464;-0.066;2023-03-20T09:36:28;101614.53;;;11.00;100.00
60355;BME280;46198;51.464;-0.066;2023-03-20T09:38:58;101618.13;;;11.07;100.00
60355;BME280;46198;51.464;-0.066;2023-03-20T09:41:27;101609.16;;;11.14;100.00
60355;BME280;46198;51.464;-0.066;2023-03-20T09:44:37;101614.16;;;11.17;100.00
60355;BME280;46198;51.464;-0.066;2023-03-20T09:47:16;101612.50;;;11.29;100.00
60355;BME280;46198;51.464;-0.066;2023-03-20T09:52:35;101611.06;;;11.26;100.00
60355;BME280;46198;51.464;-0.066;2023-03-20T09:55:11;101617.38;;;11.40;100.00
60355;BME280;46198;51.464;-0.066;2023-03-20T09:57:42;101619.03;;;11.41;100.00
60355;BME280;46198;51.464;-0.066;2023-03-20T10:00:14;101616.75;;;11.51;100.00
60355;BME280;46198;51.464;-0.066;2023-03-20T10:02:48;101622.41;;;11.57;100.00
60355;BME280;46198;51.464;-0.066;2023-03-20T10:05:21;101624.28;;;11.56;100.00
60355;BME280;46198;51.464;-0.066;2023-03-20T10:07:52;101621.38;;;11.58;100.00
60355;BME280;46198;51.464;-0.066;2023-03-20T10:10:29;101616.34;;;11.54;100.00
60355;BME280;46198;51.464;-0.066;2023-03-20T10:13:08;101616.75;;;11.58;100.00
60355;BME280;46198;51.464;-0.066;2023-03-20T10:15:46;101616.78;;;11.78;100.00
60355;BME280;46198;51.464;-0.066;2023-03-20T10:18:21;101613.41;;;11.69;100.00
60355;BME280;46198;51.464;-0.066;2023-03-20T10:20:54;101623.69;;;11.81;100.00
60355;BME280;46198;51.464;-0.066;2023-03-20T10:23:29;101620.59;;;11.90;100.00
60355;BME280;46198;51.464;-0.066;2023-03-20T10:26:05;101619.09;;;11.81;100.00
60355;BME280;46198;51.464;-0.066;2023-03-20T10:28:36;101616.16;;;11.83;100.00
60355;BME280;46198;51.464;-0.066;2023-03-20T10:31:21;101624.31;;;11.83;100.00
60355;BME280;46198;51.464;-0.066;2023-03-20T10:34:01;101617.19;;;11.75;100.00
60355;BME280;46198;51.464;-0.066;2023-03-20T10:36:45;101623.31;;;11.90;100.00
60355;BME280;46198;51.464;-0.066;2023-03-20T10:39:23;101622.25;;;11.91;100.00
60355;BME280;46198;51.464;-0.066;2023-03-20T10:42:02;101619.13;;;11.88;100.00
60355;BME280;46198;51.464;-0.066;2023-03-20T10:44:36;101623.06;;;11.85;100.00
60355;BME280;46198;51.464;-0.066;2023-03-20T10:47:09;101608.63;;;11.85;100.00
60355;BME280;46198;51.464;-0.066;2023-03-20T10:49:41;101605.91;;;11.85;100.00
60355;BME280;46198;51.464;-0.066;2023-03-20T10:52:12;101607.16;;;11.82;100.00
60355;BME280;46198;51.464;-0.066;2023-03-20T10:54:46;101605.31;;;11.89;100.00
60355;BME280;46198;51.464;-0.066;2023-03-20T10:57:21;101605.06;;;11.84;100.00
60355;BME280;46198;51.464;-0.066;2023-03-20T10:59:50;101615.78;;;11.92;100.00
60355;BME280;46198;51.464;-0.066;2023-03-20T11:02:20;101612.63;;;11.95;100.00
60355;BME280;46198;51.464;-0.066;2023-03-20T11:04:49;101619.72;;;11.96;100.00
60355;BME280;46198;51.464;-0.066;2023-03-20T11:07:22;101606.50;;;11.80;100.00
60355;BME280;46198;51.464;-0.066;2023-03-20T11:10:11;101605.91;;;11.91;100.00
60355;BME280;46198;51.464;-0.066;2023-03-20T11:12:42;101614.28;;;11.96;100.00
60355;BME280;46198;51.464;-0.066;2023-03-20T11:15:17;101611.34;;;11.91;100.00
60355;BME280;46198;51.464;-0.066;2023-03-20T11:17:53;101613.91;;;11.86;100.00
60355;BME280;46198;51.464;-0.066;2023-03-20T11:20:23;101610.31;;;11.86;100.00
60355;BME280;46198;51.464;-0.066;2023-03-20T11:22:57;101610.97;;;11.94;100.00
60355;BME280;46198;51.464;-0.066;2023-03-20T11:25:30;101604.66;;;11.94;100.00
60355;BME280;46198;51.464;-0.066;2023-03-20T11:28:23;101618.72;;;11.97;100.00
60355;BME280;46198;51.464;-0.066;2023-03-20T11:30:58;101610.13;;;12.01;100.00
60355;BME280;46198;51.464;-0.066;2023-03-20T11:33:32;101607.81;;;11.97;100.00
60355;BME280;46198;51.464;-0.066;2023-03-20T11:36:10;101605.47;;;12.08;100.00
60355;BME280;46198;51.464;-0.066;2023-03-20T11:38:43;101598.59;;;12.12;100.00
60355;BME280;46198;51.464;-0.066;2023-03-20T11:41:23;101601.31;;;12.12;100.00
60355;BME280;46198;51.464;-0.066;2023-03-20T11:43:52;101595.00;;;12.18;100.00
60355;BME280;46198;51.464;-0.066;2023-03-20T11:46:22;101601.72;;;12.22;100.00
60355;BME280;46198;51.464;-0.066;2023-03-20T11:49:05;101595.44;;;12.22;100.00
60355;BME280;46198;51.464;-0.066;2023-03-20T11:51:35;101596.47;;;12.20;100.00
60355;BME280;46198;51.464;-0.066;2023-03-20T11:54:06;101597.09;;;12.23;100.00
60355;BME280;46198;51.464;-0.066;2023-03-20T11:56:35;101605.69;;;12.26;100.00
60355;BME280;46198;51.464;-0.066;2023-03-20T11:59:12;101605.47;;;12.28;100.00
60355;BME280;46198;51.464;-0.066;2023-03-20T12:01:43;101594.16;;;12.31;100.00
60355;BME280;46198;51.464;-0.066;2023-03-20T12:04:14;101595.41;;;12.28;100.00
60355;BME280;46198;51.464;-0.066;2023-03-20T12:06:46;101589.78;;;12.23;100.00
60355;BME280;46198;51.464;-0.066;2023-03-20T12:09:30;101594.56;;;12.34;100.00
60355;BME280;46198;51.464;-0.066;2023-03-20T12:12:01;101595.00;;;12.38;100.00
60355;BME280;46198;51.464;-0.066;2023-03-20T12:14:37;101591.84;;;12.34;100.00
60355;BME280;46198;51.464;-0.066;2023-03-20T12:17:34;101588.28;;;12.34;100.00
60355;BME280;46198;51.464;-0.066;2023-03-20T12:20:23;101592.25;;;12.38;100.00
60355;BME280;46198;51.464;-0.066;2023-03-20T12:22:57;101583.06;;;12.32;100.00
60355;BME280;46198;51.464;-0.066;2023-03-20T12:25:29;101589.09;;;12.34;100.00
60355;BME280;46198;51.464;-0.066;2023-03-20T12:28:04;101587.03;;;12.36;100.00
60355;BME280;46198;51.464;-0.066;2023-03-20T12:30:48;101583.22;;;12.37;100.00
60355;BME280;46198;51.464;-0.066;2023-03-20T12:33:23;101574.47;;;12.35;100.00
60355;BME280;46198;51.464;-0.066;2023-03-20T12:35:55;101566.50;;;12.40;100.00
60355;BME280;46198;51.464;-0.066;2023-03-20T12:38:27;101574.22;;;12.37;100.00
60355;BME280;46198;51.464;-0.066;2023-03-20T12:41:00;101572.78;;;12.41;100.00
60355;BME280;46198;51.464;-0.066;2023-03-20T12:43:36;101582.59;;;12.49;100.00
60355;BME280;46198;51.464;-0.066;2023-03-20T12:46:22;101579.03;;;12.41;100.00
60355;BME280;46198;51.464;-0.066;2023-03-20T12:48:58;101580.72;;;12.42;100.00
60355;BME280;46198;51.464;-0.066;2023-03-20T12:51:39;101583.19;;;12.51;100.00
60355;BME280;46198;51.464;-0.066;2023-03-20T12:54:21;101580.28;;;12.52;100.00
60355;BME280;46198;51.464;-0.066;2023-03-20T12:56:59;101581.53;;;12.50;100.00
60355;BME280;46198;51.464;-0.066;2023-03-20T12:59:38;101567.28;;;12.48;100.00
60355;BME280;46198;51.464;-0.066;2023-03-20T13:02:21;101566.06;;;12.37;100.00
60355;BME280;46198;51.464;-0.066;2023-03-20T13:05:06;101552.22;;;12.45;100.00
60355;BME280;46198;51.464;-0.066;2023-03-20T13:07:51;101552.44;;;12.44;100.00
60355;BME280;46198;51.464;-0.066;2023-03-20T13:10:31;101556.81;;;12.45;100.00
60355;BME280;46198;51.464;-0.066;2023-03-20T13:13:10;101558.50;;;12.46;100.00
60355;BME280;46198;51.464;-0.066;2023-03-20T13:15:49;101555.59;;;12.40;100.00
60355;BME280;46198;51.464;-0.066;2023-03-20T13:18:36;101549.09;;;12.41;100.00
60355;BME280;46198;51.464;-0.066;2023-03-20T13:21:09;101546.78;;;12.38;100.00
60355;BME280;46198;51.464;-0.066;2023-03-20T13:23:44;101546.75;;;12.52;100.00
60355;BME280;46198;51.464;-0.066;2023-03-20T13:26:25;101546.75;;;12.52;100.00